createdAt,value
2017-05-23T00:00:43.766Z,79.57
2017-05-23T00:01:45.143Z,79.19
2017-05-23T00:02:46.509Z,79.28
2017-05-23T00:03:47.881Z,79.28
2017-05-23T00:04:49.261Z,79.67
2017-05-23T00:05:50.618Z,79.38
2017-05-23T00:06:52.665Z,80.05
2017-05-23T00:07:54.030Z,79.47
2017-05-23T00:08:55.390Z,79.09
2017-05-23T00:09:56.766Z,79.96
2017-05-23T00:10:58.133Z,79.28
2017-05-23T00:11:59.545Z,79.28
2017-05-23T00:13:00.934Z,79.09
2017-05-23T00:14:02.292Z,79.38
2017-05-23T00:15:03.673Z,80.05
2017-05-23T00:16:05.042Z,79.96
2017-05-23T00:17:06.414Z,79.57
2017-05-23T00:18:07.780Z,80.15
2017-05-23T00:19:09.159Z,79.19
2017-05-23T00:20:10.532Z,79.09
2017-05-23T00:21:12.668Z,79.57
2017-05-23T00:22:14.030Z,79.67
2017-05-23T00:23:15.399Z,79.76
2017-05-23T00:24:16.760Z,79.96
2017-05-23T00:25:18.140Z,79.47
2017-05-23T00:26:19.529Z,79.19
2017-05-23T00:27:20.970Z,79.19
2017-05-23T00:28:22.340Z,79.38
2017-05-23T00:29:23.699Z,79.38
2017-05-23T00:30:25.070Z,79.38
2017-05-23T00:31:26.433Z,79.47
2017-05-23T00:32:27.796Z,79.28
2017-05-23T00:33:29.162Z,79.28
2017-05-23T00:34:30.530Z,79.28
2017-05-23T00:35:31.899Z,79.19
2017-05-23T00:36:33.260Z,79.28
2017-05-23T00:37:34.700Z,79.38
2017-05-23T00:38:36.071Z,79.38
2017-05-23T00:39:37.433Z,79.72
2017-05-23T00:40:38.804Z,79.91
2017-05-23T00:41:40.166Z,80.01
2017-05-23T00:42:41.548Z,79.44
2017-05-23T00:43:42.916Z,80.15
2017-05-23T00:44:44.283Z,79.47
2017-05-23T00:45:45.691Z,78.99
2017-05-23T00:46:47.122Z,78.96
2017-05-23T00:47:48.501Z,79.24
2017-05-23T00:48:49.870Z,79.86
2017-05-23T00:49:51.237Z,79.47
2017-05-23T00:50:52.603Z,79.14
2017-05-23T00:51:53.976Z,79.24
2017-05-23T00:52:55.361Z,79.44
2017-05-23T00:53:56.727Z,79.24
2017-05-23T00:54:58.085Z,79.76
2017-05-23T00:55:59.449Z,80.11
2017-05-23T00:57:00.831Z,79.82
2017-05-23T00:58:02.197Z,79.82
2017-05-23T00:59:03.550Z,79.34
2017-05-23T01:00:04.933Z,79.86
2017-05-23T01:01:06.299Z,79.53
2017-05-23T01:02:07.675Z,79.91
2017-05-23T01:03:09.084Z,80.05
2017-05-23T01:04:10.518Z,80.01
2017-05-23T01:05:11.897Z,79.96
2017-05-23T01:06:13.269Z,79.82
2017-05-23T01:07:14.633Z,79.72
2017-05-23T01:08:16.000Z,80.30
2017-05-23T01:09:17.396Z,80.49
2017-05-23T01:10:18.784Z,80.30
2017-05-23T01:11:20.163Z,80.40
2017-05-23T01:12:21.534Z,79.96
2017-05-23T01:13:22.898Z,80.11
2017-05-23T01:14:24.272Z,80.30
2017-05-23T01:15:25.636Z,79.82
2017-05-23T01:16:27.041Z,80.11
2017-05-23T01:17:28.409Z,80.11
2017-05-23T01:18:29.780Z,79.91
2017-05-23T01:19:31.143Z,79.82
2017-05-23T01:20:32.512Z,79.91
2017-05-23T01:21:33.911Z,79.96
2017-05-23T01:22:35.297Z,79.82
2017-05-23T01:23:36.673Z,79.82
2017-05-23T01:24:38.054Z,79.86
2017-05-23T01:25:39.505Z,80.11
2017-05-23T01:26:40.896Z,79.76
2017-05-23T01:27:42.264Z,79.86
2017-05-23T01:28:43.661Z,80.01
2017-05-23T01:29:45.048Z,79.86
2017-05-23T01:30:46.449Z,79.82
2017-05-23T01:31:47.838Z,80.01
2017-05-23T01:32:49.201Z,79.91
2017-05-23T01:33:50.567Z,79.72
2017-05-23T01:34:51.933Z,79.82
2017-05-23T01:35:53.297Z,80.11
2017-05-23T01:36:54.682Z,80.49
2017-05-23T01:37:56.051Z,79.91
2017-05-23T01:38:57.423Z,79.82
2017-05-23T01:39:58.788Z,80.20
2017-05-23T01:41:00.148Z,79.91
2017-05-23T01:42:01.565Z,80.30
2017-05-23T01:43:02.943Z,79.72
2017-05-23T01:44:04.317Z,80.11
2017-05-23T01:45:05.686Z,79.82
2017-05-23T01:46:07.141Z,79.82
2017-05-23T01:47:08.519Z,80.40
2017-05-23T01:48:09.887Z,80.11
2017-05-23T01:49:11.257Z,79.82
2017-05-23T01:50:12.652Z,80.40
2017-05-23T01:51:14.014Z,80.11
2017-05-23T01:52:15.383Z,80.01
2017-05-23T01:53:16.743Z,79.72
2017-05-23T01:54:18.139Z,79.72
2017-05-23T01:55:19.503Z,79.72
2017-05-23T01:56:20.866Z,79.91
2017-05-23T01:57:22.273Z,79.82
2017-05-23T01:58:23.630Z,80.01
2017-05-23T01:59:25.058Z,79.72
2017-05-23T02:00:26.427Z,80.01
2017-05-23T02:01:27.811Z,79.34
2017-05-23T02:02:29.169Z,79.63
2017-05-23T02:03:30.542Z,79.91
2017-05-23T02:04:31.912Z,79.82
2017-05-23T02:05:33.278Z,79.91
2017-05-23T02:06:34.646Z,79.91
2017-05-23T02:07:36.016Z,80.01
2017-05-23T02:08:37.394Z,79.63
2017-05-23T02:09:38.751Z,79.44
2017-05-23T02:10:40.184Z,79.14
2017-05-23T02:11:41.559Z,79.05
2017-05-23T02:12:42.922Z,79.05
2017-05-23T02:13:44.357Z,79.44
2017-05-23T02:14:45.739Z,79.14
2017-05-23T02:15:47.122Z,79.14
2017-05-23T02:16:48.496Z,79.14
2017-05-23T02:17:49.858Z,79.34
2017-05-23T02:18:51.218Z,79.05
2017-05-23T02:19:52.644Z,79.05
2017-05-23T02:20:54.023Z,79.44
2017-05-23T02:21:55.389Z,79.53
2017-05-23T02:22:56.752Z,79.14
2017-05-23T02:23:58.119Z,79.34
2017-05-23T02:24:59.478Z,79.14
2017-05-23T02:26:00.843Z,79.34
2017-05-23T02:27:02.203Z,79.34
2017-05-23T02:28:03.567Z,79.24
2017-05-23T02:29:04.939Z,79.05
2017-05-23T02:30:06.347Z,78.77
2017-05-23T02:31:07.731Z,78.77
2017-05-23T02:32:09.095Z,78.77
2017-05-23T02:33:10.458Z,78.77
2017-05-23T02:34:11.822Z,78.86
2017-05-23T02:35:13.188Z,78.38
2017-05-23T02:36:14.571Z,78.38
2017-05-23T02:37:15.929Z,78.19
2017-05-23T02:38:17.303Z,78.47
2017-05-23T02:39:18.663Z,78.57
2017-05-23T02:40:20.032Z,78.67
2017-05-23T02:41:21.456Z,78.32
2017-05-23T02:42:22.821Z,78.61
2017-05-23T02:43:24.192Z,78.61
2017-05-23T02:44:25.564Z,78.57
2017-05-23T02:45:26.927Z,78.47
2017-05-23T02:46:28.289Z,78.28
2017-05-23T02:47:29.653Z,78.70
2017-05-23T02:48:31.017Z,78.70
2017-05-23T02:49:32.380Z,78.13
2017-05-23T02:50:33.783Z,77.84
2017-05-23T02:51:35.150Z,78.61
2017-05-23T02:52:36.513Z,78.42
2017-05-23T02:53:37.875Z,78.42
2017-05-23T02:54:39.245Z,78.61
2017-05-23T02:55:40.626Z,78.96
2017-05-23T02:56:41.999Z,78.23
2017-05-23T02:57:43.369Z,78.42
2017-05-23T02:58:44.740Z,78.32
2017-05-23T02:59:46.106Z,78.42
2017-05-23T03:00:47.464Z,78.70
2017-05-23T03:01:49.313Z,78.28
2017-05-23T03:02:50.688Z,78.61
2017-05-23T03:03:52.062Z,78.47
2017-05-23T03:04:53.429Z,78.28
2017-05-23T03:05:54.817Z,78.09
2017-05-23T03:06:56.188Z,78.28
2017-05-23T03:07:57.550Z,78.13
2017-05-23T03:08:58.914Z,78.42
2017-05-23T03:10:00.285Z,78.96
2017-05-23T03:11:01.658Z,78.86
2017-05-23T03:12:03.024Z,78.96
2017-05-23T03:13:04.399Z,78.96
2017-05-23T03:14:05.761Z,78.90
2017-05-23T03:15:07.153Z,78.52
2017-05-23T03:16:08.518Z,78.32
2017-05-23T03:17:09.892Z,78.99
2017-05-23T03:18:11.262Z,79.14
2017-05-23T03:19:12.622Z,79.05
2017-05-23T03:20:14.001Z,79.24
2017-05-23T03:21:15.369Z,78.99
2017-05-23T03:22:16.729Z,79.38
2017-05-23T03:23:18.119Z,78.99
2017-05-23T03:24:19.487Z,79.09
2017-05-23T03:25:20.868Z,78.99
2017-05-23T03:26:22.249Z,79.09
2017-05-23T03:27:23.626Z,79.14
2017-05-23T03:28:24.990Z,79.19
2017-05-23T03:29:26.362Z,79.47
2017-05-23T03:30:27.730Z,79.47
2017-05-23T03:31:29.112Z,79.76
2017-05-23T03:32:30.484Z,79.76
2017-05-23T03:33:31.850Z,80.34
2017-05-23T03:34:33.248Z,79.86
2017-05-23T03:35:34.590Z,80.05
2017-05-23T03:36:35.968Z,80.05
2017-05-23T03:37:37.341Z,80.05
2017-05-23T03:38:38.713Z,79.96
2017-05-23T03:39:40.114Z,79.28
2017-05-23T03:40:41.497Z,79.38
2017-05-23T03:41:42.903Z,79.09
2017-05-23T03:42:44.283Z,79.38
2017-05-23T03:43:45.650Z,79.47
2017-05-23T03:44:47.044Z,78.80
2017-05-23T03:45:48.401Z,78.32
2017-05-23T03:46:49.791Z,78.99
2017-05-23T03:47:51.178Z,78.99
2017-05-23T03:48:52.567Z,78.80
2017-05-23T03:49:53.931Z,78.61
2017-05-23T03:50:55.298Z,78.70
2017-05-23T03:51:56.663Z,78.42
2017-05-23T03:52:58.042Z,78.52
2017-05-23T03:53:59.418Z,78.32
2017-05-23T03:55:00.779Z,78.52
2017-05-23T03:56:02.157Z,78.32
2017-05-23T03:57:03.527Z,78.52
2017-05-23T03:58:04.891Z,78.42
2017-05-23T03:59:06.267Z,78.03
2017-05-23T04:00:07.660Z,77.94
2017-05-23T04:01:09.029Z,77.94
2017-05-23T04:02:10.403Z,78.17
2017-05-23T04:03:11.781Z,78.03
2017-05-23T04:04:13.178Z,78.13
2017-05-23T04:05:14.561Z,77.50
2017-05-23T04:06:15.932Z,77.78
2017-05-23T04:07:17.301Z,77.59
2017-05-23T04:08:18.667Z,77.50
2017-05-23T04:09:20.038Z,77.31
2017-05-23T04:10:21.411Z,77.50
2017-05-23T04:11:22.786Z,77.88
2017-05-23T04:12:24.160Z,77.59
2017-05-23T04:13:25.538Z,76.92
2017-05-23T04:14:26.922Z,77.11
2017-05-23T04:15:28.304Z,77.31
2017-05-23T04:16:29.673Z,77.31
2017-05-23T04:17:31.044Z,76.64
2017-05-23T04:18:32.418Z,76.82
2017-05-23T04:19:33.790Z,77.11
2017-05-23T04:20:35.169Z,76.15
2017-05-23T04:21:36.537Z,76.54
2017-05-23T04:22:37.909Z,76.25
2017-05-23T04:23:39.285Z,76.25
2017-05-23T04:24:40.659Z,75.87
2017-05-23T04:25:42.027Z,75.87
2017-05-23T04:26:43.396Z,75.96
2017-05-23T04:27:44.770Z,75.48
2017-05-23T04:28:46.143Z,75.57
2017-05-23T04:29:47.507Z,75.48
2017-05-23T04:30:48.890Z,75.62
2017-05-23T04:31:50.952Z,75.23
2017-05-23T04:32:52.323Z,75.23
2017-05-23T04:33:53.697Z,75.32
2017-05-23T04:34:55.066Z,75.13
2017-05-23T04:35:56.440Z,75.04
2017-05-23T04:36:57.812Z,75.04
2017-05-23T04:37:59.254Z,75.04
2017-05-23T04:39:00.621Z,74.94
2017-05-23T04:40:01.996Z,74.71
2017-05-23T04:41:03.362Z,75.23
2017-05-23T04:42:04.741Z,74.85
2017-05-23T04:43:06.165Z,74.75
2017-05-23T04:44:07.478Z,75.04
2017-05-23T04:45:08.848Z,74.75
2017-05-23T04:46:10.230Z,74.85
2017-05-23T04:47:11.594Z,74.65
2017-05-23T04:48:13.699Z,74.27
2017-05-23T04:49:15.084Z,74.37
2017-05-23T04:50:16.447Z,74.46
2017-05-23T04:51:17.821Z,74.75
2017-05-23T04:52:19.190Z,73.50
2017-05-23T04:53:20.587Z,74.46
2017-05-23T04:54:21.962Z,73.98
2017-05-23T04:55:23.328Z,73.98
2017-05-23T04:56:24.700Z,74.02
2017-05-23T04:57:26.063Z,73.88
2017-05-23T04:58:27.436Z,73.69
2017-05-23T04:59:28.802Z,73.79
2017-05-23T05:00:30.178Z,73.98
2017-05-23T05:01:31.542Z,73.73
2017-05-23T05:02:32.908Z,73.88
2017-05-23T05:03:34.280Z,73.35
2017-05-23T05:04:36.262Z,73.35
2017-05-23T05:05:36.980Z,72.96
2017-05-23T05:06:38.349Z,72.67
2017-05-23T05:07:39.717Z,72.38
2017-05-23T05:08:41.096Z,72.96
2017-05-23T05:09:42.462Z,72.38
2017-05-23T05:10:43.835Z,72.77
2017-05-23T05:11:45.201Z,72.86
2017-05-23T05:12:46.574Z,72.38
2017-05-23T05:13:47.946Z,72.58
2017-05-23T05:14:49.317Z,72.48
2017-05-23T05:15:50.684Z,72.29
2017-05-23T05:16:52.050Z,71.91
2017-05-23T05:17:53.423Z,72.09
2017-05-23T05:18:54.789Z,72.38
2017-05-23T05:19:56.167Z,72.00
2017-05-23T05:20:57.551Z,72.19
2017-05-23T05:21:58.931Z,72.19
2017-05-23T05:23:00.297Z,72.38
2017-05-23T05:24:01.660Z,72.29
2017-05-23T05:25:03.029Z,72.00
2017-05-23T05:26:04.406Z,71.42
2017-05-23T05:27:05.778Z,71.36
2017-05-23T05:28:07.154Z,71.42
2017-05-23T05:29:08.527Z,71.55
2017-05-23T05:30:09.922Z,70.68
2017-05-23T05:31:11.290Z,70.88
2017-05-23T05:32:12.673Z,70.59
2017-05-23T05:33:14.045Z,71.08
2017-05-23T05:34:15.422Z,70.59
2017-05-23T05:35:16.785Z,71.46
2017-05-23T05:36:18.165Z,71.75
2017-05-23T05:37:19.562Z,71.55
2017-05-23T05:38:20.932Z,72.32
2017-05-23T05:39:22.882Z,71.46
2017-05-23T05:40:24.248Z,71.94
2017-05-23T05:41:25.622Z,71.46
2017-05-23T05:42:26.996Z,71.84
2017-05-23T05:43:28.380Z,71.08
2017-05-23T05:44:29.762Z,70.78
2017-05-23T05:45:31.127Z,70.78
2017-05-23T05:46:32.493Z,70.98
2017-05-23T05:47:33.859Z,70.50
2017-05-23T05:48:35.248Z,70.40
2017-05-23T05:49:36.617Z,70.01
2017-05-23T05:50:38.028Z,69.82
2017-05-23T05:51:39.389Z,69.82
2017-05-23T05:52:40.759Z,69.34
2017-05-23T05:53:42.126Z,69.06
2017-05-23T05:54:43.505Z,69.34
2017-05-23T05:55:44.878Z,68.96
2017-05-23T05:56:46.251Z,68.96
2017-05-23T05:57:47.623Z,68.90
2017-05-23T05:58:48.991Z,69.09
2017-05-23T05:59:50.362Z,68.60
2017-05-23T06:00:51.729Z,68.70
2017-05-23T06:01:53.099Z,68.57
2017-05-23T06:02:54.479Z,68.32
2017-05-23T06:03:55.853Z,68.51
2017-05-23T06:04:57.218Z,68.22
2017-05-23T06:05:58.597Z,68.51
2017-05-23T06:06:59.966Z,68.32
2017-05-23T06:08:01.358Z,68.41
2017-05-23T06:09:02.730Z,68.41
2017-05-23T06:10:04.101Z,68.60
2017-05-23T06:11:05.490Z,68.13
2017-05-23T06:12:06.858Z,68.54
2017-05-23T06:13:08.231Z,68.32
2017-05-23T06:14:09.599Z,68.16
2017-05-23T06:15:10.969Z,68.26
2017-05-23T06:16:12.393Z,67.87
2017-05-23T06:17:13.763Z,68.06
2017-05-23T06:18:15.142Z,68.16
2017-05-23T06:19:16.513Z,68.44
2017-05-23T06:20:17.915Z,69.02
2017-05-23T06:21:20.239Z,69.12
2017-05-23T06:22:21.664Z,69.12
2017-05-23T06:23:23.075Z,68.84
2017-05-23T06:24:24.449Z,67.68
2017-05-23T06:25:25.823Z,67.97
2017-05-23T06:26:27.205Z,67.87
2017-05-23T06:27:28.577Z,67.97
2017-05-23T06:28:29.958Z,68.54
2017-05-23T06:29:31.337Z,68.84
2017-05-23T06:30:32.704Z,68.16
2017-05-23T06:31:34.079Z,67.97
2017-05-23T06:32:35.459Z,68.38
2017-05-23T06:33:36.828Z,67.90
2017-05-23T06:34:38.260Z,67.33
2017-05-23T06:35:39.630Z,67.23
2017-05-23T06:36:41.005Z,67.13
2017-05-23T06:37:42.402Z,67.42
2017-05-23T06:38:43.772Z,68.00
2017-05-23T06:39:45.160Z,67.90
2017-05-23T06:40:46.529Z,67.61
2017-05-23T06:41:47.899Z,68.10
2017-05-23T06:42:49.289Z,68.54
2017-05-23T06:43:50.660Z,69.25
2017-05-23T06:44:52.027Z,69.99
2017-05-23T06:45:53.403Z,69.41
2017-05-23T06:46:54.776Z,69.54
2017-05-23T06:47:56.145Z,69.06
2017-05-23T06:48:57.513Z,69.06
2017-05-23T06:49:58.907Z,69.73
2017-05-23T06:51:00.276Z,69.83
2017-05-23T06:52:01.651Z,70.02
2017-05-23T06:53:03.058Z,70.12
2017-05-23T06:54:04.444Z,69.64
2017-05-23T06:55:05.823Z,69.73
2017-05-23T06:56:07.219Z,69.83
2017-05-23T06:57:08.590Z,70.02
2017-05-23T06:58:09.995Z,69.99
2017-05-23T06:59:11.380Z,70.02
2017-05-23T07:00:12.772Z,69.15
2017-05-23T07:01:14.138Z,69.15
2017-05-23T07:02:15.588Z,68.96
2017-05-23T07:03:16.957Z,69.54
2017-05-23T07:04:18.329Z,69.45
2017-05-23T07:05:19.701Z,68.87
2017-05-23T07:06:21.078Z,68.58
2017-05-23T07:07:22.447Z,68.10
2017-05-23T07:08:23.844Z,67.42
2017-05-23T07:09:25.223Z,67.33
2017-05-23T07:10:26.588Z,66.75
2017-05-23T07:11:27.967Z,65.30
2017-05-23T07:12:29.343Z,64.73
2017-05-23T07:13:30.707Z,64.34
2017-05-23T07:14:32.125Z,64.25
2017-05-23T07:15:33.480Z,64.15
2017-05-23T07:16:34.853Z,64.34
2017-05-23T07:17:36.227Z,65.14
2017-05-23T07:18:37.602Z,64.73
2017-05-23T07:19:38.982Z,64.56
2017-05-23T07:20:40.347Z,64.18
2017-05-23T07:21:41.734Z,64.08
2017-05-23T07:22:43.102Z,64.18
2017-05-23T07:23:44.530Z,64.08
2017-05-23T07:24:45.898Z,63.89
2017-05-23T07:25:47.279Z,64.28
2017-05-23T07:26:48.661Z,64.76
2017-05-23T07:27:50.026Z,64.18
2017-05-23T07:28:51.406Z,64.08
2017-05-23T07:29:52.784Z,64.18
2017-05-23T07:30:54.169Z,64.56
2017-05-23T07:31:55.556Z,64.47
2017-05-23T07:32:56.927Z,64.47
2017-05-23T07:33:58.297Z,64.28
2017-05-23T07:34:59.670Z,64.47
2017-05-23T07:36:01.048Z,64.37
2017-05-23T07:37:03.258Z,64.47
2017-05-23T07:38:04.643Z,64.47
2017-05-23T07:39:06.008Z,64.66
2017-05-23T07:40:07.391Z,63.89
2017-05-23T07:41:08.773Z,63.44
2017-05-23T07:42:10.139Z,63.21
2017-05-23T07:43:11.549Z,63.44
2017-05-23T07:44:12.936Z,63.82
2017-05-23T07:45:14.315Z,62.96
2017-05-23T07:46:15.714Z,63.63
2017-05-23T07:47:17.102Z,62.76
2017-05-23T07:48:18.538Z,63.41
2017-05-23T07:49:19.857Z,63.24
2017-05-23T07:50:21.243Z,63.15
2017-05-23T07:51:22.613Z,62.96
2017-05-23T07:52:23.988Z,62.96
2017-05-23T07:53:25.363Z,62.57
2017-05-23T07:54:26.730Z,62.66
2017-05-23T07:55:28.109Z,63.24
2017-05-23T07:56:29.482Z,63.34
2017-05-23T07:57:30.851Z,63.15
2017-05-23T07:58:32.229Z,62.96
2017-05-23T07:59:33.603Z,62.57
2017-05-23T08:00:34.988Z,62.09
2017-05-23T08:01:36.368Z,62.18
2017-05-23T08:02:37.740Z,62.18
2017-05-23T08:03:39.117Z,62.38
2017-05-23T08:04:40.518Z,61.71
2017-05-23T08:05:41.891Z,62.38
2017-05-23T08:06:43.270Z,62.48
2017-05-23T08:07:44.671Z,63.06
2017-05-23T08:08:46.046Z,62.18
2017-05-23T08:09:47.429Z,62.18
2017-05-23T08:10:48.800Z,62.15
2017-05-23T08:11:50.183Z,62.15
2017-05-23T08:12:51.556Z,61.22
2017-05-23T08:13:52.949Z,60.74
2017-05-23T08:14:54.329Z,60.80
2017-05-23T08:15:55.762Z,61.48
2017-05-23T08:16:57.023Z,61.68
2017-05-23T08:17:58.415Z,61.00
2017-05-23T08:18:59.783Z,61.03
2017-05-23T08:20:01.154Z,60.64
2017-05-23T08:21:02.534Z,60.64
2017-05-23T08:22:03.899Z,60.74
2017-05-23T08:23:05.287Z,59.97
2017-05-23T08:24:06.678Z,59.97
2017-05-23T08:25:08.051Z,59.97
2017-05-23T08:26:09.426Z,59.48
2017-05-23T08:27:10.799Z,59.87
2017-05-23T08:28:12.171Z,59.20
2017-05-23T08:29:13.549Z,59.39
2017-05-23T08:30:14.965Z,58.81
2017-05-23T08:31:16.332Z,58.91
2017-05-23T08:32:17.703Z,58.75
2017-05-23T08:33:19.076Z,59.00
2017-05-23T08:34:20.446Z,59.10
2017-05-23T08:35:21.818Z,59.20
2017-05-23T08:36:23.194Z,59.10
2017-05-23T08:37:24.561Z,59.20
2017-05-23T08:38:25.990Z,59.20
2017-05-23T08:39:27.406Z,59.13
2017-05-23T08:40:28.750Z,58.91
2017-05-23T08:41:30.129Z,58.72
2017-05-23T08:42:31.502Z,58.81
2017-05-23T08:43:32.874Z,58.91
2017-05-23T08:44:34.239Z,58.72
2017-05-23T08:45:35.618Z,58.65
2017-05-23T08:46:37.010Z,58.75
2017-05-23T08:47:38.381Z,58.55
2017-05-23T08:48:39.749Z,58.17
2017-05-23T08:49:41.130Z,58.72
2017-05-23T08:50:42.505Z,58.84
2017-05-23T08:51:43.893Z,58.07
2017-05-23T08:52:45.269Z,57.97
2017-05-23T08:53:46.706Z,57.97
2017-05-23T08:54:48.094Z,58.55
2017-05-23T08:55:49.485Z,57.97
2017-05-23T08:56:50.863Z,57.87
2017-05-23T08:57:52.232Z,57.49
2017-05-23T08:58:53.604Z,57.29
2017-05-23T08:59:54.978Z,57.01
2017-05-23T09:00:56.351Z,56.62
2017-05-23T09:01:57.719Z,57.01
2017-05-23T09:02:59.087Z,57.49
2017-05-23T09:04:00.470Z,57.23
2017-05-23T09:05:01.842Z,57.52
2017-05-23T09:06:03.214Z,57.87
2017-05-23T09:07:04.588Z,57.52
2017-05-23T09:08:05.958Z,57.32
2017-05-23T09:09:07.358Z,57.62
2017-05-23T09:10:08.771Z,57.32
2017-05-23T09:11:10.147Z,57.62
2017-05-23T09:12:11.530Z,56.84
2017-05-23T09:13:12.985Z,57.14
2017-05-23T09:14:14.363Z,57.04
2017-05-23T09:15:15.751Z,56.94
2017-05-23T09:16:17.120Z,56.58
2017-05-23T09:17:18.494Z,57.04
2017-05-23T09:18:19.892Z,56.48
2017-05-23T09:19:21.287Z,56.46
2017-05-23T09:20:22.670Z,56.68
2017-05-23T09:21:24.066Z,56.29
2017-05-23T09:22:25.441Z,56.48
2017-05-23T09:23:26.810Z,55.90
2017-05-23T09:24:28.190Z,55.62
2017-05-23T09:25:29.563Z,56.20
2017-05-23T09:26:31.002Z,55.62
2017-05-23T09:27:32.380Z,55.13
2017-05-23T09:28:33.760Z,55.42
2017-05-23T09:29:35.132Z,55.23
2017-05-23T09:30:36.510Z,55.04
2017-05-23T09:31:37.883Z,54.55
2017-05-23T09:32:39.252Z,54.55
2017-05-23T09:33:40.626Z,54.77
2017-05-23T09:34:42.000Z,54.27
2017-05-23T09:35:43.379Z,54.46
2017-05-23T09:36:44.751Z,54.58
2017-05-23T09:37:46.164Z,54.46
2017-05-23T09:38:47.570Z,54.27
2017-05-23T09:39:48.965Z,54.27
2017-05-23T09:40:50.336Z,54.46
2017-05-23T09:41:51.731Z,54.07
2017-05-23T09:42:53.105Z,54.10
2017-05-23T09:43:54.474Z,53.81
2017-05-23T09:44:55.858Z,53.42
2017-05-23T09:45:57.231Z,53.23
2017-05-23T09:46:58.625Z,53.61
2017-05-23T09:47:59.999Z,53.71
2017-05-23T09:49:01.375Z,53.42
2017-05-23T09:50:02.749Z,52.36
2017-05-23T09:51:04.123Z,52.55
2017-05-23T09:52:05.524Z,52.48
2017-05-23T09:53:06.919Z,52.48
2017-05-23T09:54:08.294Z,52.29
2017-05-23T09:55:09.693Z,52.48
2017-05-23T09:56:11.088Z,52.55
2017-05-23T09:57:12.536Z,52.84
2017-05-23T09:58:13.933Z,53.71
2017-05-23T09:59:15.306Z,52.75
2017-05-23T10:00:16.695Z,52.67
2017-05-23T10:01:18.074Z,51.71
2017-05-23T10:02:19.448Z,51.25
2017-05-23T10:03:20.861Z,51.15
2017-05-23T10:04:22.247Z,50.67
2017-05-23T10:05:23.634Z,50.02
2017-05-23T10:06:25.016Z,50.18
2017-05-23T10:07:26.396Z,50.28
2017-05-23T10:08:27.776Z,50.55
2017-05-23T10:09:29.141Z,50.57
2017-05-23T10:10:30.520Z,51.23
2017-05-23T10:11:31.899Z,51.71
2017-05-23T10:12:33.283Z,51.42
2017-05-23T10:13:34.666Z,51.23
2017-05-23T10:14:36.139Z,51.42
2017-05-23T10:15:37.520Z,50.93
2017-05-23T10:16:38.890Z,51.23
2017-05-23T10:17:40.259Z,51.23
2017-05-23T10:18:41.636Z,51.23
2017-05-23T10:19:43.061Z,50.84
2017-05-23T10:20:44.434Z,50.45
2017-05-23T10:21:45.817Z,49.77
2017-05-23T10:22:47.190Z,49.95
2017-05-23T10:23:48.565Z,51.13
2017-05-23T10:24:49.944Z,51.87
2017-05-23T10:25:51.347Z,52.67
2017-05-23T10:26:52.729Z,52.48
2017-05-23T10:27:54.099Z,52.29
2017-05-23T10:28:55.473Z,52.67
2017-05-23T10:29:56.847Z,52.29
2017-05-23T10:30:58.220Z,52.39
2017-05-23T10:31:59.589Z,52.58
2017-05-23T10:33:00.964Z,52.19
2017-05-23T10:34:02.337Z,51.20
2017-05-23T10:35:03.711Z,50.35
2017-05-23T10:36:05.108Z,51.23
2017-05-23T10:37:06.512Z,50.55
2017-05-23T10:38:07.884Z,50.45
2017-05-23T10:39:09.260Z,49.99
2017-05-23T10:40:10.642Z,49.41
2017-05-23T10:41:12.016Z,49.41
2017-05-23T10:42:13.396Z,49.99
2017-05-23T10:43:14.777Z,48.06
2017-05-23T10:44:16.151Z,48.54
2017-05-23T10:45:17.536Z,48.16
2017-05-23T10:46:18.901Z,47.77
2017-05-23T10:47:20.286Z,47.67
2017-05-23T10:48:21.658Z,47.67
2017-05-23T10:49:23.039Z,47.58
2017-05-23T10:50:24.421Z,47.67
2017-05-23T10:51:25.796Z,47.28
2017-05-23T10:52:27.168Z,46.70
2017-05-23T10:53:28.555Z,47.41
2017-05-23T10:54:29.927Z,47.79
2017-05-23T10:55:31.311Z,46.44
2017-05-23T10:56:32.679Z,46.73
2017-05-23T10:57:34.050Z,46.53
2017-05-23T10:58:35.427Z,46.05
2017-05-23T10:59:36.835Z,45.47
2017-05-23T11:00:38.270Z,45.47
2017-05-23T11:01:39.644Z,44.89
2017-05-23T11:02:41.090Z,44.89
2017-05-23T11:03:42.532Z,44.12
2017-05-23T11:04:43.958Z,44.12
2017-05-23T11:05:45.339Z,43.92
2017-05-23T11:06:46.708Z,42.86
2017-05-23T11:07:48.087Z,43.63
2017-05-23T11:08:49.498Z,43.63
2017-05-23T11:09:50.867Z,43.54
2017-05-23T11:10:52.244Z,43.24
2017-05-23T11:11:53.629Z,43.24
2017-05-23T11:12:55.008Z,43.73
2017-05-23T11:13:56.381Z,44.40
2017-05-23T11:14:57.750Z,43.24
2017-05-23T11:15:59.130Z,43.34
2017-05-23T11:17:00.513Z,42.57
2017-05-23T11:18:01.891Z,42.86
2017-05-23T11:19:03.277Z,42.96
2017-05-23T11:20:04.649Z,43.05
2017-05-23T11:21:06.027Z,43.44
2017-05-23T11:22:07.397Z,42.96
2017-05-23T11:23:08.765Z,43.15
2017-05-23T11:24:10.149Z,43.54
2017-05-23T11:25:11.528Z,44.13
2017-05-23T11:26:12.903Z,44.12
2017-05-23T11:27:14.273Z,44.89
2017-05-23T11:28:15.641Z,44.79
2017-05-23T11:29:17.034Z,44.60
2017-05-23T11:30:18.394Z,44.40
2017-05-23T11:31:19.773Z,44.79
2017-05-23T11:32:21.139Z,44.02
2017-05-23T11:33:22.513Z,44.02
2017-05-23T11:34:23.889Z,42.57
2017-05-23T11:35:25.271Z,42.00
2017-05-23T11:36:26.644Z,40.65
2017-05-23T11:37:28.081Z,39.59
2017-05-23T11:38:29.465Z,40.65
2017-05-23T11:39:30.843Z,40.94
2017-05-23T11:40:32.235Z,41.04
2017-05-23T11:41:33.612Z,41.04
2017-05-23T11:42:34.979Z,40.94
2017-05-23T11:43:36.350Z,41.33
2017-05-23T11:44:37.721Z,40.17
2017-05-23T11:45:39.121Z,40.46
2017-05-23T11:46:40.483Z,40.56
2017-05-23T11:47:41.914Z,39.78
2017-05-23T11:48:43.238Z,39.78
2017-05-23T11:49:44.611Z,39.29
2017-05-23T11:50:46.053Z,39.49
2017-05-23T11:51:47.469Z,39.69
2017-05-23T11:52:48.944Z,39.97
2017-05-23T11:53:50.349Z,40.46
2017-05-23T11:54:51.764Z,40.26
2017-05-23T11:55:53.215Z,40.56
2017-05-23T11:56:54.635Z,39.49
2017-05-23T11:57:56.063Z,39.88
2017-05-23T11:58:57.438Z,39.69
2017-05-23T11:59:58.833Z,39.41
2017-05-23T12:01:00.257Z,39.51
2017-05-23T12:02:01.684Z,38.93
2017-05-23T12:03:03.080Z,38.35
2017-05-23T12:04:04.459Z,37.59
2017-05-23T12:05:05.877Z,36.02
2017-05-23T12:06:07.281Z,34.01
2017-05-23T12:07:08.659Z,34.11
2017-05-23T12:08:10.072Z,33.62
2017-05-23T12:09:11.479Z,33.60
2017-05-23T12:10:12.882Z,33.33
2017-05-23T12:11:14.275Z,33.81
2017-05-23T12:12:15.666Z,34.01
2017-05-23T12:13:17.073Z,33.91
2017-05-23T12:14:18.445Z,34.78
2017-05-23T12:15:19.830Z,35.07
2017-05-23T12:16:21.224Z,34.89
2017-05-23T12:17:22.671Z,35.46
2017-05-23T12:18:24.047Z,35.66
2017-05-23T12:19:25.430Z,36.14
2017-05-23T12:20:26.837Z,35.56
2017-05-23T12:21:28.212Z,35.66
2017-05-23T12:22:29.595Z,36.43
2017-05-23T12:23:31.015Z,36.82
2017-05-23T12:24:32.389Z,37.40
2017-05-23T12:25:33.763Z,37.69
2017-05-23T12:26:35.135Z,38.17
2017-05-23T12:27:36.514Z,38.48
2017-05-23T12:28:37.893Z,38.87
2017-05-23T12:29:39.275Z,39.16
2017-05-23T12:30:40.650Z,39.45
2017-05-23T12:31:42.021Z,40.33
2017-05-23T12:32:43.397Z,40.21
2017-05-23T12:33:44.771Z,40.89
2017-05-23T12:34:46.148Z,41.45
2017-05-23T12:35:47.516Z,40.96
2017-05-23T12:36:48.892Z,41.17
2017-05-23T12:37:50.273Z,40.99
2017-05-23T12:38:51.718Z,41.27
2017-05-23T12:39:53.092Z,40.50
2017-05-23T12:40:54.462Z,40.59
2017-05-23T12:41:55.841Z,40.31
2017-05-23T12:42:57.217Z,40.23
2017-05-23T12:43:58.589Z,40.13
2017-05-23T12:44:59.971Z,40.23
2017-05-23T12:46:01.338Z,40.33
2017-05-23T12:47:02.726Z,40.42
2017-05-23T12:48:04.097Z,40.25
2017-05-23T12:49:05.474Z,39.45
2017-05-23T12:50:06.850Z,38.31
2017-05-23T12:51:08.270Z,38.19
2017-05-23T12:52:09.643Z,37.90
2017-05-23T12:53:11.024Z,37.53
2017-05-23T12:54:12.397Z,37.43
2017-05-23T12:55:13.790Z,36.97
2017-05-23T12:56:15.161Z,36.85
2017-05-23T12:57:16.586Z,36.58
2017-05-23T12:58:17.960Z,36.38
2017-05-23T12:59:19.341Z,35.80
2017-05-23T13:00:20.710Z,35.71
2017-05-23T13:01:22.116Z,36.46
2017-05-23T13:02:23.495Z,36.19
2017-05-23T13:03:24.878Z,36.58
2017-05-23T13:04:26.245Z,36.76
2017-05-23T13:05:27.624Z,36.56
2017-05-23T13:06:29.003Z,36.66
2017-05-23T13:07:30.377Z,36.56
2017-05-23T13:08:31.755Z,36.76
2017-05-23T13:09:33.126Z,36.36
2017-05-23T13:10:34.498Z,36.46